sensor_id;sensor_type;location;lat;lon;timestamp;pressure;altitude;pressure_sealevel;temperature;humidity
24013;BME280;12220;50.194;18.948;2022-09-09T00:00:21;101554.58;;;19.47;79.72
24013;BME280;12220;50.194;18.948;2022-09-09T00:02:30;101544.37;;;19.47;79.78
24013;BME280;12220;50.194;18.948;2022-09-09T00:04:36;101539.82;;;19.46;79.83
24013;BME280;12220;50.194;18.948;2022-09-09T00:09:00;101562.05;;;19.46;79.89
24013;BME280;12220;50.194;18.948;2022-09-09T00:11:03;101545.38;;;19.46;79.89
24013;BME280;12220;50.194;18.948;2022-09-09T00:22:30;101547.29;;;19.46;79.44
24013;BME280;12220;50.194;18.948;2022-09-09T00:26:52;101552.39;;;19.41;79.23
24013;BME280;12220;50.194;18.948;2022-09-09T00:31:18;101545.52;;;19.35;79.14
24013;BME280;12220;50.194;18.948;2022-09-09T00:33:23;101546.41;;;19.36;79.11
24013;BME280;12220;50.194;18.948;2022-09-09T00:35:39;101554.00;;;19.33;78.96
24013;BME280;12220;50.194;18.948;2022-09-09T00:37:41;101553.28;;;19.31;78.84
24013;BME280;12220;50.194;18.948;2022-09-09T00:39:47;101550.64;;;19.30;78.67
24013;BME280;12220;50.194;18.948;2022-09-09T00:51:01;101556.62;;;19.15;78.19
24013;BME280;12220;50.194;18.948;2022-09-09T00:53:28;101564.48;;;19.10;78.29
24013;BME280;12220;50.194;18.948;2022-09-09T00:55:48;101564.77;;;19.07;78.46
24013;BME280;12220;50.194;18.948;2022-09-09T00:57:59;101575.30;;;19.04;78.55
24013;BME280;12220;50.194;18.948;2022-09-09T01:02:21;101573.98;;;18.98;78.52
24013;BME280;12220;50.194;18.948;2022-09-09T01:04:31;101571.34;;;18.96;78.63
24013;BME280;12220;50.194;18.948;2022-09-09T01:06:37;101570.59;;;18.94;78.65
24013;BME280;12220;50.194;18.948;2022-09-09T01:08:48;101576.14;;;18.94;78.58
24013;BME280;12220;50.194;18.948;2022-09-09T01:11:01;101576.27;;;18.93;78.54
24013;BME280;12220;50.194;18.948;2022-09-09T01:13:05;101601.27;;;18.93;78.52
24013;BME280;12220;50.194;18.948;2022-09-09T01:15:16;101581.98;;;18.91;78.54
24013;BME280;12220;50.194;18.948;2022-09-09T01:17:26;101581.12;;;18.91;78.53
24013;BME280;12220;50.194;18.948;2022-09-09T01:21:50;101590.73;;;18.87;78.53
24013;BME280;12220;50.194;18.948;2022-09-09T01:26:24;101585.58;;;18.82;78.50
24013;BME280;12220;50.194;18.948;2022-09-09T01:28:28;101601.51;;;18.80;78.53
24013;BME280;12220;50.194;18.948;2022-09-09T01:30:31;101587.89;;;18.77;78.53
24013;BME280;12220;50.194;18.948;2022-09-09T01:32:42;101595.48;;;18.75;78.60
24013;BME280;12220;50.194;18.948;2022-09-09T01:34:44;101593.72;;;18.74;78.60
24013;BME280;12220;50.194;18.948;2022-09-09T01:36:55;101597.79;;;18.70;78.63
24013;BME280;12220;50.194;18.948;2022-09-09T01:38:57;101600.70;;;18.68;78.63
24013;BME280;12220;50.194;18.948;2022-09-09T01:40:59;101592.66;;;18.65;78.67
24013;BME280;12220;50.194;18.948;2022-09-09T01:43:02;101597.48;;;18.63;78.72
24013;BME280;12220;50.194;18.948;2022-09-09T01:45:05;101594.99;;;18.60;78.78
24013;BME280;12220;50.194;18.948;2022-09-09T01:47:07;101605.34;;;18.58;78.83
24013;BME280;12220;50.194;18.948;2022-09-09T01:49:08;101603.61;;;18.57;78.92
24013;BME280;12220;50.194;18.948;2022-09-09T01:51:17;101599.06;;;18.56;78.98
24013;BME280;12220;50.194;18.948;2022-09-09T01:53:21;101603.12;;;18.52;79.06
24013;BME280;12220;50.194;18.948;2022-09-09T01:55:31;101596.71;;;18.51;79.17
24013;BME280;12220;50.194;18.948;2022-09-09T01:57:47;101598.59;;;18.51;79.22
24013;BME280;12220;50.194;18.948;2022-09-09T02:06:38;101600.77;;;18.47;79.30
24013;BME280;12220;50.194;18.948;2022-09-09T02:08:48;101595.37;;;18.45;79.37
24013;BME280;12220;50.194;18.948;2022-09-09T02:11:00;101597.38;;;18.43;79.39
24013;BME280;12220;50.194;18.948;2022-09-09T02:13:17;101613.16;;;18.43;79.45
24013;BME280;12220;50.194;18.948;2022-09-09T02:15:23;101615.92;;;18.43;79.46
24013;BME280;12220;50.194;18.948;2022-09-09T02:17:29;101609.51;;;18.42;79.37
24013;BME280;12220;50.194;18.948;2022-09-09T02:19:46;101614.30;;;18.40;79.36
24013;BME280;12220;50.194;18.948;2022-09-09T02:22:00;101608.89;;;18.39;79.39
24013;BME280;12220;50.194;18.948;2022-09-09T02:24:05;101619.11;;;18.38;79.42
24013;BME280;12220;50.194;18.948;2022-09-09T02:26:13;101616.34;;;18.38;79.40
24013;BME280;12220;50.194;18.948;2022-09-09T02:28:24;101615.33;;;18.39;79.42
24013;BME280;12220;50.194;18.948;2022-09-09T02:30:28;101626.43;;;18.39;79.39
24013;BME280;12220;50.194;18.948;2022-09-09T02:32:38;101624.52;;;18.40;79.33
24013;BME280;12220;50.194;18.948;2022-09-09T02:34:44;101632.98;;;18.38;79.23
24013;BME280;12220;50.194;18.948;2022-09-09T02:36:47;101631.21;;;18.37;79.17
24013;BME280;12220;50.194;18.948;2022-09-09T02:38:53;101638.66;;;18.37;79.18
24013;BME280;12220;50.194;18.948;2022-09-09T02:40:55;101630.48;;;18.35;79.18
24013;BME280;12220;50.194;18.948;2022-09-09T02:42:56;101638.95;;;18.34;79.22
24013;BME280;12220;50.194;18.948;2022-09-09T02:44:57;101637.17;;;18.33;79.26
24013;BME280;12220;50.194;18.948;2022-09-09T02:49:24;101639.95;;;18.33;79.18
24013;BME280;12220;50.194;18.948;2022-09-09T02:56:17;101635.82;;;18.27;79.11
24013;BME280;12220;50.194;18.948;2022-09-09T02:58:21;101641.37;;;18.27;79.11
24013;BME280;12220;50.194;18.948;2022-09-09T03:00:25;101647.91;;;18.26;79.08
24013;BME280;12220;50.194;18.948;2022-09-09T03:02:26;101647.05;;;18.25;79.05
24013;BME280;12220;50.194;18.948;2022-09-09T03:04:28;101657.27;;;18.25;79.01
24013;BME280;12220;50.194;18.948;2022-09-09T03:06:31;101651.87;;;18.23;78.98
24013;BME280;12220;50.194;18.948;2022-09-09T03:08:33;101657.55;;;18.22;78.85
24013;BME280;12220;50.194;18.948;2022-09-09T03:10:34;101661.46;;;18.19;78.80
24013;BME280;12220;50.194;18.948;2022-09-09T03:12:43;101662.60;;;18.17;78.73
24013;BME280;12220;50.194;18.948;2022-09-09T03:14:44;101671.19;;;18.14;78.68
24013;BME280;12220;50.194;18.948;2022-09-09T03:16:47;101667.68;;;18.11;78.67
24013;BME280;12220;50.194;18.948;2022-09-09T03:18:49;101665.02;;;18.10;78.69
24013;BME280;12220;50.194;18.948;2022-09-09T03:20:57;101659.75;;;18.07;78.63
24013;BME280;12220;50.194;18.948;2022-09-09T03:23:00;101653.47;;;18.05;78.62
24013;BME280;12220;50.194;18.948;2022-09-09T03:25:03;101648.07;;;18.03;78.52
24013;BME280;12220;50.194;18.948;2022-09-09T03:27:04;101659.28;;;18.02;78.37
24013;BME280;12220;50.194;18.948;2022-09-09T03:29:12;101661.43;;;17.98;78.13
24013;BME280;12220;50.194;18.948;2022-09-09T03:31:17;101673.82;;;17.94;78.01
24013;BME280;12220;50.194;18.948;2022-09-09T03:33:20;101669.55;;;17.90;77.98
24013;BME280;12220;50.194;18.948;2022-09-09T03:35:21;101674.43;;;17.86;77.92
24013;BME280;12220;50.194;18.948;2022-09-09T03:37:27;101671.05;;;17.83;77.90
24013;BME280;12220;50.194;18.948;2022-09-09T03:39:28;101671.33;;;17.80;77.90
24013;BME280;12220;50.194;18.948;2022-09-09T03:41:30;101679.00;;;17.76;77.86
24013;BME280;12220;50.194;18.948;2022-09-09T03:43:31;101675.50;;;17.74;77.81
24013;BME280;12220;50.194;18.948;2022-09-09T03:45:48;101677.50;;;17.72;77.78
24013;BME280;12220;50.194;18.948;2022-09-09T03:47:49;101674.13;;;17.68;77.76
24013;BME280;12220;50.194;18.948;2022-09-09T03:49:51;101681.67;;;17.66;77.70
24013;BME280;12220;50.194;18.948;2022-09-09T03:51:52;101671.90;;;17.62;77.68
24013;BME280;12220;50.194;18.948;2022-09-09T03:53:56;101681.21;;;17.61;77.69
24013;BME280;12220;50.194;18.948;2022-09-09T03:55:59;101679.57;;;17.58;77.65
24013;BME280;12220;50.194;18.948;2022-09-09T03:58:04;101678.70;;;17.58;77.56
24013;BME280;12220;50.194;18.948;2022-09-09T04:00:07;101677.07;;;17.55;77.47
24013;BME280;12220;50.194;18.948;2022-09-09T04:02:11;101679.97;;;17.54;77.44
24013;BME280;12220;50.194;18.948;2022-09-09T04:04:13;101684.77;;;17.52;77.38
24013;BME280;12220;50.194;18.948;2022-09-09T04:06:14;101679.45;;;17.49;77.33
24013;BME280;12220;50.194;18.948;2022-09-09T04:08:16;101676.83;;;17.47;77.20
24013;BME280;12220;50.194;18.948;2022-09-09T04:10:26;101682.77;;;17.42;77.02
24013;BME280;12220;50.194;18.948;2022-09-09T04:12:29;101691.59;;;17.36;76.99
24013;BME280;12220;50.194;18.948;2022-09-09T04:14:30;101692.84;;;17.32;76.98
24013;BME280;12220;50.194;18.948;2022-09-09T04:16:34;101708.86;;;17.29;76.90
24013;BME280;12220;50.194;18.948;2022-09-09T04:18:42;101695.24;;;17.25;76.96
24013;BME280;12220;50.194;18.948;2022-09-09T04:20:46;101688.36;;;17.20;76.93
24013;BME280;12220;50.194;18.948;2022-09-09T04:22:48;101686.84;;;17.16;76.98
24013;BME280;12220;50.194;18.948;2022-09-09T04:24:50;101682.44;;;17.13;77.07
24013;BME280;12220;50.194;18.948;2022-09-09T04:26:56;101690.01;;;17.11;77.05
24013;BME280;12220;50.194;18.948;2022-09-09T04:28:58;101696.66;;;17.08;77.06
24013;BME280;12220;50.194;18.948;2022-09-09T04:31:09;101690.49;;;17.05;76.96
24013;BME280;12220;50.194;18.948;2022-09-09T04:33:12;101694.54;;;17.01;76.96
24013;BME280;12220;50.194;18.948;2022-09-09T04:35:14;101697.53;;;16.98;77.02
24013;BME280;12220;50.194;18.948;2022-09-09T04:37:15;101692.25;;;16.95;77.06
24013;BME280;12220;50.194;18.948;2022-09-09T04:39:20;101692.38;;;16.93;77.04
24013;BME280;12220;50.194;18.948;2022-09-09T04:41:21;101693.51;;;16.90;77.04
24013;BME280;12220;50.194;18.948;2022-09-09T04:43:26;101691.77;;;16.89;77.04
24013;BME280;12220;50.194;18.948;2022-09-09T04:45:31;101698.29;;;16.88;77.05
24013;BME280;12220;50.194;18.948;2022-09-09T04:47:34;101698.39;;;16.87;77.00
24013;BME280;12220;50.194;18.948;2022-09-09T04:49:37;101705.82;;;16.86;77.01
24013;BME280;12220;50.194;18.948;2022-09-09T04:51:41;101701.16;;;16.87;76.99
24013;BME280;12220;50.194;18.948;2022-09-09T04:53:44;101699.39;;;16.86;77.01
24013;BME280;12220;50.194;18.948;2022-09-09T04:55:48;101704.83;;;16.87;77.03
24013;BME280;12220;50.194;18.948;2022-09-09T04:57:50;101696.53;;;16.87;77.05
24013;BME280;12220;50.194;18.948;2022-09-09T04:59:55;101704.70;;;16.89;77.00
24013;BME280;12220;50.194;18.948;2022-09-09T05:01:57;101705.73;;;16.88;76.95
24013;BME280;12220;50.194;18.948;2022-09-09T05:03:58;101706.60;;;16.88;76.94
24013;BME280;12220;50.194;18.948;2022-09-09T05:06:07;101700.07;;;16.89;76.92
24013;BME280;12220;50.194;18.948;2022-09-09T05:08:10;101709.23;;;16.90;76.85
24013;BME280;12220;50.194;18.948;2022-09-09T05:10:11;101711.01;;;16.91;76.90
24013;BME280;12220;50.194;18.948;2022-09-09T05:12:16;101710.10;;;16.90;76.98
24013;BME280;12220;50.194;18.948;2022-09-09T05:14:17;101716.42;;;16.93;77.00
24013;BME280;12220;50.194;18.948;2022-09-09T05:16:25;101725.57;;;16.93;76.91
24013;BME280;12220;50.194;18.948;2022-09-09T05:18:27;101731.38;;;16.90;76.89
24013;BME280;12220;50.194;18.948;2022-09-09T05:20:29;101728.73;;;16.88;76.95
24013;BME280;12220;50.194;18.948;2022-09-09T05:22:30;101721.42;;;16.87;76.98
24013;BME280;12220;50.194;18.948;2022-09-09T05:24:40;101732.49;;;16.87;77.02
24013;BME280;12220;50.194;18.948;2022-09-09T05:26:41;101733.39;;;16.88;77.07
24013;BME280;12220;50.194;18.948;2022-09-09T05:28:44;101738.02;;;16.87;77.11
24013;BME280;12220;50.194;18.948;2022-09-09T05:30:46;101731.38;;;16.90;77.12
24013;BME280;12220;50.194;18.948;2022-09-09T05:32:58;101736.77;;;16.92;77.25
24013;BME280;12220;50.194;18.948;2022-09-09T05:35:03;101738.55;;;16.93;77.33
24013;BME280;12220;50.194;18.948;2022-09-09T05:37:04;101739.29;;;16.95;77.39
24013;BME280;12220;50.194;18.948;2022-09-09T05:39:07;101482.24;;;15.44;77.29
24013;BME280;12220;50.194;18.948;2022-09-09T05:41:10;101735.39;;;16.97;77.40
24013;BME280;12220;50.194;18.948;2022-09-09T05:43:12;101734.40;;;16.98;77.40
24013;BME280;12220;50.194;18.948;2022-09-09T05:45:13;101732.38;;;17.00;77.39
24013;BME280;12220;50.194;18.948;2022-09-09T05:47:14;101728.61;;;17.01;77.38
24013;BME280;12220;50.194;18.948;2022-09-09T05:49:25;101734.89;;;17.03;77.38
24013;BME280;12220;50.194;18.948;2022-09-09T05:51:29;101736.66;;;17.04;77.39
24013;BME280;12220;50.194;18.948;2022-09-09T05:53:34;101722.09;;;17.02;77.54
24013;BME280;12220;50.194;18.948;2022-09-09T05:55:36;101730.13;;;17.05;77.56
24013;BME280;12220;50.194;18.948;2022-09-09T05:57:39;101736.40;;;17.07;77.62
24013;BME280;12220;50.194;18.948;2022-09-09T05:59:41;101734.51;;;17.08;77.70
24013;BME280;12220;50.194;18.948;2022-09-09T06:01:42;101739.95;;;17.10;77.95
24013;BME280;12220;50.194;18.948;2022-09-09T06:03:48;101740.69;;;17.12;78.15
24013;BME280;12220;50.194;18.948;2022-09-09T06:06:01;101732.27;;;17.13;78.21
24013;BME280;12220;50.194;18.948;2022-09-09T06:08:16;101733.12;;;17.14;78.31
24013;BME280;12220;50.194;18.948;2022-09-09T06:10:17;101730.23;;;17.15;78.41
24013;BME280;12220;50.194;18.948;2022-09-09T06:12:18;101730.09;;;17.17;78.59
24013;BME280;12220;50.194;18.948;2022-09-09T06:14:24;101734.64;;;17.18;78.78
24013;BME280;12220;50.194;18.948;2022-09-09T06:16:31;101737.27;;;17.19;78.91
24013;BME280;12220;50.194;18.948;2022-09-09T06:18:34;101728.84;;;17.21;79.04
24013;BME280;12220;50.194;18.948;2022-09-09T06:20:35;101736.89;;;17.24;79.15
24013;BME280;12220;50.194;18.948;2022-09-09T06:22:39;101735.77;;;17.27;79.27
24013;BME280;12220;50.194;18.948;2022-09-09T06:24:45;101734.51;;;17.31;79.40
24013;BME280;12220;50.194;18.948;2022-09-09T06:26:47;101741.55;;;17.35;79.59
24013;BME280;12220;50.194;18.948;2022-09-09T06:28:50;101735.63;;;17.39;79.75
24013;BME280;12220;50.194;18.948;2022-09-09T06:31:03;101735.23;;;17.44;79.86
24013;BME280;12220;50.194;18.948;2022-09-09T06:33:05;101740.26;;;17.50;80.01
24013;BME280;12220;50.194;18.948;2022-09-09T06:35:07;101745.56;;;17.53;80.09
24013;BME280;12220;50.194;18.948;2022-09-09T06:37:08;101736.87;;;17.58;80.16
24013;BME280;12220;50.194;18.948;2022-09-09T06:39:09;101740.11;;;17.63;80.37
24013;BME280;12220;50.194;18.948;2022-09-09T06:41:22;101742.39;;;17.69;80.44
24013;BME280;12220;50.194;18.948;2022-09-09T06:43:25;101764.15;;;17.74;80.47
24013;BME280;12220;50.194;18.948;2022-09-09T06:45:29;101727.74;;;17.78;80.50
24013;BME280;12220;50.194;18.948;2022-09-09T06:47:37;101739.29;;;17.84;80.54
24013;BME280;12220;50.194;18.948;2022-09-09T06:49:38;101738.02;;;17.88;80.62
24013;BME280;12220;50.194;18.948;2022-09-09T06:51:42;101735.92;;;17.91;80.63
24013;BME280;12220;50.194;18.948;2022-09-09T06:53:45;101740.20;;;17.96;80.70
24013;BME280;12220;50.194;18.948;2022-09-09T06:55:49;101742.56;;;18.00;80.67
24013;BME280;12220;50.194;18.948;2022-09-09T06:57:50;101733.84;;;18.05;80.81
24013;BME280;12220;50.194;18.948;2022-09-09T06:59:52;101739.99;;;18.08;80.91
24013;BME280;12220;50.194;18.948;2022-09-09T07:01:54;101727.77;;;18.11;80.78
24013;BME280;12220;50.194;18.948;2022-09-09T07:03:57;101729.27;;;18.15;80.65
24013;BME280;12220;50.194;18.948;2022-09-09T07:06:05;101731.77;;;18.18;80.51
24013;BME280;12220;50.194;18.948;2022-09-09T07:08:08;101731.35;;;18.23;80.45
24013;BME280;12220;50.194;18.948;2022-09-09T07:10:09;101732.86;;;18.27;80.39
24013;BME280;12220;50.194;18.948;2022-09-09T07:12:12;101733.35;;;18.32;80.26
24013;BME280;12220;50.194;18.948;2022-09-09T07:14:20;101732.94;;;18.37;80.18
24013;BME280;12220;50.194;18.948;2022-09-09T07:16:23;101733.54;;;18.40;79.98
24013;BME280;12220;50.194;18.948;2022-09-09T07:18:25;101725.85;;;18.44;79.76
24013;BME280;12220;50.194;18.948;2022-09-09T07:20:26;101725.43;;;18.49;79.65
24013;BME280;12220;50.194;18.948;2022-09-09T07:22:33;101724.15;;;18.53;79.51
24013;BME280;12220;50.194;18.948;2022-09-09T07:24:35;101719.33;;;18.55;79.39
24013;BME280;12220;50.194;18.948;2022-09-09T07:26:39;101717.05;;;18.60;79.31
24013;BME280;12220;50.194;18.948;2022-09-09T07:28:41;101713.13;;;18.62;79.13
24013;BME280;12220;50.194;18.948;2022-09-09T07:33:10;101723.81;;;18.67;78.75
24013;BME280;12220;50.194;18.948;2022-09-09T07:35:11;101722.77;;;18.68;78.71
24013;BME280;12220;50.194;18.948;2022-09-09T07:37:13;101721.34;;;18.74;78.75
24013;BME280;12220;50.194;18.948;2022-09-09T07:39:14;101722.98;;;18.76;78.58
24013;BME280;12220;50.194;18.948;2022-09-09T07:41:27;101726.37;;;18.80;78.58
24013;BME280;12220;50.194;18.948;2022-09-09T07:43:29;101724.18;;;18.84;78.56
24013;BME280;12220;50.194;18.948;2022-09-09T07:45:30;101721.02;;;18.88;78.41
24013;BME280;12220;50.194;18.948;2022-09-09T07:47:34;101734.20;;;18.96;78.42
24013;BME280;12220;50.194;18.948;2022-09-09T07:49:39;101733.66;;;19.02;78.15
24013;BME280;12220;50.194;18.948;2022-09-09T07:51:45;101737.79;;;19.08;78.06
24013;BME280;12220;50.194;18.948;2022-09-09T07:53:47;101731.66;;;19.14;77.96
24013;BME280;12220;50.194;18.948;2022-09-09T07:55:48;101739.58;;;19.19;76.78
24013;BME280;12220;50.194;18.948;2022-09-09T07:57:56;101739.02;;;19.25;76.41
24013;BME280;12220;50.194;18.948;2022-09-09T07:59:58;101739.48;;;19.30;76.11
24013;BME280;12220;50.194;18.948;2022-09-09T08:02:02;101739.77;;;19.37;75.92
24013;BME280;12220;50.194;18.948;2022-09-09T08:04:12;101740.82;;;19.45;75.91
24013;BME280;12220;50.194;18.948;2022-09-09T08:06:18;101741.76;;;19.56;75.46
24013;BME280;12220;50.194;18.948;2022-09-09T08:08:19;101739.27;;;19.62;75.25
24013;BME280;12220;50.194;18.948;2022-09-09T08:10:21;101736.67;;;19.71;74.96
24013;BME280;12220;50.194;18.948;2022-09-09T08:12:23;101737.85;;;19.78;74.89
24013;BME280;12220;50.194;18.948;2022-09-09T08:14:29;101733.36;;;19.87;74.88
24013;BME280;12220;50.194;18.948;2022-09-09T08:16:37;101739.96;;;19.95;74.56
24013;BME280;12220;50.194;18.948;2022-09-09T08:18:39;101740.98;;;20.04;74.55
24013;BME280;12220;50.194;18.948;2022-09-09T08:20:40;101745.66;;;20.13;74.02
24013;BME280;12220;50.194;18.948;2022-09-09T08:22:43;101747.70;;;20.21;73.80
24013;BME280;12220;50.194;18.948;2022-09-09T08:24:44;101745.08;;;20.29;73.69
24013;BME280;12220;50.194;18.948;2022-09-09T08:26:57;101746.25;;;20.36;73.25
24013;BME280;12220;50.194;18.948;2022-09-09T08:29:05;101740.98;;;20.43;72.86
24013;BME280;12220;50.194;18.948;2022-09-09T08:31:13;101751.52;;;20.49;72.83
24013;BME280;12220;50.194;18.948;2022-09-09T08:33:19;101745.19;;;20.57;72.91
24013;BME280;12220;50.194;18.948;2022-09-09T08:35:21;101742.70;;;20.64;72.65
24013;BME280;12220;50.194;18.948;2022-09-09T08:37:22;101748.72;;;20.69;72.10
24013;BME280;12220;50.194;18.948;2022-09-09T08:39:27;101743.29;;;20.77;72.16
24013;BME280;12220;50.194;18.948;2022-09-09T08:44:05;101745.59;;;20.92;70.99
24013;BME280;12220;50.194;18.948;2022-09-09T08:51:19;101751.52;;;21.16;70.58
24013;BME280;12220;50.194;18.948;2022-09-09T08:53:28;101742.55;;;21.22;70.63
24013;BME280;12220;50.194;18.948;2022-09-09T08:58:14;101747.77;;;21.35;70.52
24013;BME280;12220;50.194;18.948;2022-09-09T09:00:34;101740.71;;;21.41;70.30
24013;BME280;12220;50.194;18.948;2022-09-09T09:10:00;101742.71;;;21.49;67.97
24013;BME280;12220;50.194;18.948;2022-09-09T09:12:22;101749.93;;;21.51;67.95
24013;BME280;12220;50.194;18.948;2022-09-09T09:14:35;101745.64;;;21.57;67.86
24013;BME280;12220;50.194;18.948;2022-09-09T09:17:28;101746.19;;;21.61;67.80
24013;BME280;12220;50.194;18.948;2022-09-09T09:18:54;101746.62;;;21.66;67.63
24013;BME280;12220;50.194;18.948;2022-09-09T09:21:21;101748.06;;;21.70;67.64
24013;BME280;12220;50.194;18.948;2022-09-09T09:23:23;101746.41;;;21.77;67.59
24013;BME280;12220;50.194;18.948;2022-09-09T09:25:39;101742.24;;;21.81;66.92
24013;BME280;12220;50.194;18.948;2022-09-09T09:27:56;101740.91;;;21.85;66.23
24013;BME280;12220;50.194;18.948;2022-09-09T09:32:26;101730.71;;;21.94;65.88
24013;BME280;12220;50.194;18.948;2022-09-09T09:34:29;101728.82;;;21.94;66.07
24013;BME280;12220;50.194;18.948;2022-09-09T09:43:41;101729.29;;;22.08;64.44
24013;BME280;12220;50.194;18.948;2022-09-09T09:45:46;101724.99;;;22.14;64.33
24013;BME280;12220;50.194;18.948;2022-09-09T09:50:00;101716.19;;;22.26;64.49
24013;BME280;12220;50.194;18.948;2022-09-09T09:52:05;101726.27;;;22.37;64.30
24013;BME280;12220;50.194;18.948;2022-09-09T09:56:27;101733.66;;;22.46;64.32
24013;BME280;12220;50.194;18.948;2022-09-09T10:02:19;101725.74;;;22.60;63.69
24013;BME280;12220;50.194;18.948;2022-09-09T10:04:22;101724.54;;;22.62;63.16
24013;BME280;12220;50.194;18.948;2022-09-09T10:06:34;101731.73;;;22.65;63.30
24013;BME280;12220;50.194;18.948;2022-09-09T10:08:44;101728.77;;;22.67;63.29
24013;BME280;12220;50.194;18.948;2022-09-09T10:15:26;101735.78;;;22.71;62.33
24013;BME280;12220;50.194;18.948;2022-09-09T10:17:42;101740.87;;;22.75;62.22
24013;BME280;12220;50.194;18.948;2022-09-09T10:24:37;101748.41;;;22.83;62.15
24013;BME280;12220;50.194;18.948;2022-09-09T10:31:32;101753.38;;;22.89;61.79
24013;BME280;12220;50.194;18.948;2022-09-09T10:33:58;101765.08;;;22.93;61.64
24013;BME280;12220;50.194;18.948;2022-09-09T10:36:12;101765.94;;;22.93;60.82
24013;BME280;12220;50.194;18.948;2022-09-09T10:38:17;101769.63;;;22.94;60.96
24013;BME280;12220;50.194;18.948;2022-09-09T10:42:32;101762.52;;;23.00;60.68
24013;BME280;12220;50.194;18.948;2022-09-09T10:51:40;101769.13;;;23.25;60.62
24013;BME280;12220;50.194;18.948;2022-09-09T10:54:05;101766.01;;;23.28;59.87
24013;BME280;12220;50.194;18.948;2022-09-09T10:56:13;101751.87;;;23.29;60.04
24013;BME280;12220;50.194;18.948;2022-09-09T10:58:27;101756.43;;;23.30;59.80
24013;BME280;12220;50.194;18.948;2022-09-09T11:02:43;101752.44;;;23.33;59.45
24013;BME280;12220;50.194;18.948;2022-09-09T11:06:58;101751.53;;;23.32;58.54
24013;BME280;12220;50.194;18.948;2022-09-09T11:09:05;101748.04;;;23.30;58.11
24013;BME280;12220;50.194;18.948;2022-09-09T11:13:26;101765.34;;;23.34;57.10
24013;BME280;12220;50.194;18.948;2022-09-09T11:15:41;101756.78;;;23.36;56.93
24013;BME280;12220;50.194;18.948;2022-09-09T11:17:48;101754.38;;;23.41;55.36
24013;BME280;12220;50.194;18.948;2022-09-09T11:19:55;101758.25;;;23.48;54.47
24013;BME280;12220;50.194;18.948;2022-09-09T11:21:58;101756.88;;;23.52;54.87
24013;BME280;12220;50.194;18.948;2022-09-09T11:24:13;101760.03;;;23.57;54.94
24013;BME280;12220;50.194;18.948;2022-09-09T11:26:30;101765.11;;;23.62;54.82
24013;BME280;12220;50.194;18.948;2022-09-09T11:40:08;101766.81;;;23.89;53.47
24013;BME280;12220;50.194;18.948;2022-09-09T11:42:23;101763.32;;;23.95;53.34
24013;BME280;12220;50.194;18.948;2022-09-09T11:44:29;101762.48;;;24.03;53.48
24013;BME280;12220;50.194;18.948;2022-09-09T11:46:37;101766.18;;;24.12;53.80
24013;BME280;12220;50.194;18.948;2022-09-09T11:48:57;101748.34;;;24.21;53.47
24013;BME280;12220;50.194;18.948;2022-09-09T11:50:59;101753.06;;;24.29;53.07
24013;BME280;12220;50.194;18.948;2022-09-09T11:53:18;101749.59;;;24.35;53.12
24013;BME280;12220;50.194;18.948;2022-09-09T11:55:31;101751.33;;;24.44;52.61
24013;BME280;12220;50.194;18.948;2022-09-09T11:57:44;101749.04;;;24.48;51.89
24013;BME280;12220;50.194;18.948;2022-09-09T11:59:51;101751.69;;;24.49;52.07
24013;BME280;12220;50.194;18.948;2022-09-09T12:02:02;101759.91;;;24.51;52.27
24013;BME280;12220;50.194;18.948;2022-09-09T12:06:44;101764.09;;;24.55;52.34
24013;BME280;12220;50.194;18.948;2022-09-09T12:08:52;101755.69;;;24.55;52.62
24013;BME280;12220;50.194;18.948;2022-09-09T12:10:58;101751.53;;;24.59;52.88
24013;BME280;12220;50.194;18.948;2022-09-09T12:17:31;101755.91;;;24.62;52.02
24013;BME280;12220;50.194;18.948;2022-09-09T12:19:34;101767.98;;;24.62;51.82
24013;BME280;12220;50.194;18.948;2022-09-09T12:24:09;101759.38;;;24.56;50.99
24013;BME280;12220;50.194;18.948;2022-09-09T12:26:32;101768.83;;;24.54;50.92
24013;BME280;12220;50.194;18.948;2022-09-09T12:28:54;101766.89;;;24.55;51.01
24013;BME280;12220;50.194;18.948;2022-09-09T12:33:37;101760.78;;;24.51;49.92
24013;BME280;12220;50.194;18.948;2022-09-09T12:35:55;101772.84;;;24.52;50.21
24013;BME280;12220;50.194;18.948;2022-09-09T12:38:01;101762.55;;;24.52;49.99
24013;BME280;12220;50.194;18.948;2022-09-09T12:40:14;101768.66;;;24.56;50.22
24013;BME280;12220;50.194;18.948;2022-09-09T12:42:17;101759.03;;;24.59;50.28
24013;BME280;12220;50.194;18.948;2022-09-09T12:44:19;101771.67;;;24.63;50.09
24013;BME280;12220;50.194;18.948;2022-09-09T12:46:36;101765.89;;;24.64;50.36
24013;BME280;12220;50.194;18.948;2022-09-09T12:48:40;101765.53;;;24.67;50.42
24013;BME280;12220;50.194;18.948;2022-09-09T12:50:51;101772.89;;;24.68;50.18
24013;BME280;12220;50.194;18.948;2022-09-09T12:52:59;101756.96;;;24.69;50.43
24013;BME280;12220;50.194;18.948;2022-09-09T12:55:03;101761.69;;;24.68;50.08
24013;BME280;12220;50.194;18.948;2022-09-09T12:57:13;101755.38;;;24.66;49.72
24013;BME280;12220;50.194;18.948;2022-09-09T12:59:23;101762.20;;;24.64;49.68
24013;BME280;12220;50.194;18.948;2022-09-09T13:01:27;101752.75;;;24.65;49.98
24013;BME280;12220;50.194;18.948;2022-09-09T13:03:29;101750.48;;;24.68;49.94
24013;BME280;12220;50.194;18.948;2022-09-09T13:05:36;101744.71;;;24.70;50.14
24013;BME280;12220;50.194;18.948;2022-09-09T13:07:40;101742.78;;;24.70;50.19